| Date | Time | Temp. (oF) | Dew Point (oF) | Rel. Hum. (%) | Press. (in.) | Wind Dir. | Wind Speed (mph) | Hourly Rainfall (in.) |
|
|---|---|---|---|---|---|---|---|---|---|
| 1 | 12/22 | 00:00 | 29 | 21 | 73 | 30.33 | S | 2 | 0.00 |
| 2 | 12/21 | 23:00 | 30 | 21 | 71 | 30.33 | WNW | 6 | 0.00 |
| 3 | 12/21 | 22:00 | 31 | 21 | 67 | 30.31 | NW | 3 | 0.00 |
| 4 | 12/21 | 21:00 | 32 | 21 | 65 | 30.31 | W | 3 | 0.00 |
| 5 | 12/21 | 20:00 | 33 | 21 | 62 | 30.30 | WNW | 7 | 0.00 |
| 6 | 12/21 | 19:00 | 34 | 23 | 64 | 30.27 | WNW | 10 | 0.00 |
| 7 | 12/21 | 18:00 | 35 | 24 | 66 | 30.25 | W | 11 | 0.00 |
| 8 | 12/21 | 17:00 | 37 | 25 | 64 | 30.21 | WNW | 8 | 0.00 |
| 9 | 12/21 | 16:00 | 38 | 25 | 60 | 30.17 | NW | 8 | 0.00 |
| 10 | 12/21 | 15:00 | 40 | 24 | 54 | 30.15 | WNW | 16 | 0.00 |
| 11 | 12/21 | 14:00 | 40 | 25 | 57 | 30.12 | WNW | 7 | 0.00 |
| 12 | 12/21 | 13:00 | 40 | 26 | 58 | 30.11 | NW | 12 | 0.00 |
| 13 | 12/21 | 12:00 | 39 | 26 | 60 | 30.12 | WNW | 13 | 0.00 |
| 14 | 12/21 | 11:00 | 38 | 24 | 57 | 30.12 | WNW | 10 | 0.00 |
| 15 | 12/21 | 10:00 | 39 | 25 | 57 | 30.11 | W | 10 | 0.00 |
| 16 | 12/21 | 09:00 | 37 | 25 | 62 | 30.09 | S | 6 | 0.00 |
| 17 | 12/21 | 08:00 | 33 | 23 | 67 | 30.07 | SSW | 3 | 0.00 |
| 18 | 12/21 | 07:00 | 33 | 22 | 65 | 30.05 | W | 8 | 0.00 |
| 19 | 12/21 | 06:00 | 34 | 22 | 63 | 30.03 | SW | 7 | 0.00 |
| 20 | 12/21 | 05:00 | 34 | 22 | 63 | 30.01 | WSW | 6 | 0.00 |
| 21 | 12/21 | 04:00 | 35 | 22 | 60 | 30.00 | WNW | 6 | 0.00 |
| 22 | 12/21 | 03:00 | 34 | 19 | 55 | 29.99 | WSW | 3 | 0.00 |
| 23 | 12/21 | 02:00 | 34 | 19 | 54 | 29.97 | NW | 4 | 0.00 |
| 24 | 12/21 | 01:00 | 34 | 18 | 53 | 29.95 | WNW | 6 | 0.00 |